Time;durP1;ratioP1;P1;durP2;ratioP2;P2;SDS_P1;SDS_P2;PMS_P1;PMS_P2;Temp;Humidity;BMP_temperature;BMP_pressure;BME280_temperature;BME280_humidity;BME280_pressure;Samples;Min_cycle;Max_cycle;Signal;HPM_P1;HPM_P2
2022/08/29 00:00:21;;;;;;;17.37;9.03;;;;;;;19.20;100.00;99639.47;4197053;28;20306;-63
2022/08/29 00:02:51;;;;;;;15.20;9.27;;;;;;;19.27;100.00;99645.63;4194209;28;20414;-65
2022/08/29 00:05:19;;;;;;;17.20;9.37;;;;;;;19.26;100.00;99633.16;4211082;28;20240;-65
2022/08/29 00:07:50;;;;;;;13.47;9.33;;;;;;;19.15;100.00;99633.88;4198105;28;20232;-65
2022/08/29 00:10:17;;;;;;;15.83;8.93;;;;;;;19.20;100.00;99628.66;4198217;28;20260;-66
2022/08/29 00:12:44;;;;;;;16.30;9.00;;;;;;;19.22;100.00;99623.84;4182064;28;20248;-65
2022/08/29 00:15:11;;;;;;;13.33;9.33;;;;;;;19.25;100.00;99630.69;4204443;28;20239;-64
2022/08/29 00:17:38;;;;;;;16.50;9.33;;;;;;;19.13;100.00;99633.28;4197491;28;20240;-64
2022/08/29 00:20:06;;;;;;;13.63;9.23;;;;;;;19.18;100.00;99641.53;4193247;28;20225;-66
2022/08/29 00:22:33;;;;;;;16.90;9.57;;;;;;;19.22;100.00;99642.72;4181464;28;20685;-64
2022/08/29 00:25:03;;;;;;;16.10;10.70;;;;;;;19.13;100.00;99631.41;4191434;28;20236;-67
2022/08/29 00:27:31;;;;;;;15.50;10.47;;;;;;;19.13;100.00;99634.13;4185221;28;20279;-63
2022/08/29 00:29:58;;;;;;;16.90;10.17;;;;;;;19.04;100.00;99630.03;4196405;28;21147;-66
2022/08/29 00:32:25;;;;;;;16.63;10.07;;;;;;;18.95;100.00;99621.38;4196656;28;20224;-66
2022/08/29 00:34:51;;;;;;;18.33;11.10;;;;;;;18.96;100.00;99628.44;4195468;28;20239;-66
2022/08/29 00:37:18;;;;;;;15.90;11.07;;;;;;;18.89;100.00;99627.66;4201905;28;21760;-64
2022/08/29 00:39:45;;;;;;;19.47;10.87;;;;;;;18.86;100.00;99622.72;4202988;28;20881;-63
2022/08/29 00:42:12;;;;;;;17.77;11.57;;;;;;;18.87;100.00;99624.38;4223483;28;20241;-64
2022/08/29 00:44:38;;;;;;;17.80;10.07;;;;;;;18.83;100.00;99622.34;4198154;28;20777;-64
2022/08/29 00:47:08;;;;;;;17.73;11.67;;;;;;;18.83;100.00;99625.84;4208243;28;20270;-65
2022/08/29 00:49:40;;;;;;;15.43;10.83;;;;;;;18.81;100.00;99619.84;4188508;28;21535;-65
2022/08/29 00:52:13;;;;;;;19.37;11.67;;;;;;;18.76;100.00;99622.34;4196400;28;20244;-63
2022/08/29 00:54:42;;;;;;;15.87;10.67;;;;;;;18.83;100.00;99617.75;4207270;28;20383;-64
2022/08/29 00:57:09;;;;;;;22.60;12.40;;;;;;;18.74;100.00;99613.66;4198215;28;20236;-64
2022/08/29 00:59:38;;;;;;;15.67;10.97;;;;;;;18.79;100.00;99613.03;4199995;28;20299;-65
2022/08/29 01:02:06;;;;;;;18.17;12.00;;;;;;;18.83;100.00;99616.94;4186924;28;20279;-66
2022/08/29 01:04:33;;;;;;;18.23;12.70;;;;;;;18.77;100.00;99608.66;4204138;28;20275;-66
2022/08/29 01:07:00;;;;;;;23.00;12.77;;;;;;;18.82;100.00;99605.31;4206263;28;20224;-64
2022/08/29 01:09:27;;;;;;;18.80;12.13;;;;;;;18.87;100.00;99613.59;4216926;28;21452;-64
2022/08/29 01:14:46;;;;;;;22.17;12.43;;;;;;;18.96;100.00;99612.28;4216851;28;21160;-63
2022/08/29 01:17:20;;;;;;;21.60;13.00;;;;;;;19.09;100.00;99621.28;4202210;28;20326;-64
2022/08/29 01:20:05;;;;;;;17.90;12.77;;;;;;;19.10;100.00;99617.53;4183552;28;20664;-63
2022/08/29 01:22:59;;;;;;;21.77;12.23;;;;;;;19.09;100.00;99614.03;4207939;28;20232;-64
2022/08/29 01:25:30;;;;;;;20.20;13.20;;;;;;;19.18;100.00;99615.38;4213274;28;20239;-63
2022/08/29 01:28:12;;;;;;;21.50;13.83;;;;;;;19.13;100.00;99615.22;4188372;28;20290;-63
2022/08/29 01:31:05;;;;;;;23.83;13.57;;;;;;;19.15;100.00;99615.84;4198068;28;20527;-66
2022/08/29 01:33:55;;;;;;;21.70;14.57;;;;;;;19.21;100.00;99614.13;4210126;28;20237;-63
2022/08/29 01:36:26;;;;;;;22.57;13.90;;;;;;;19.27;100.00;99617.78;4201204;28;20240;-65
2022/08/29 01:38:53;;;;;;;20.13;13.90;;;;;;;19.17;100.00;99621.00;4204961;28;25348;-65
2022/08/29 01:41:21;;;;;;;25.30;15.90;;;;;;;19.07;100.00;99612.59;4201977;28;20304;-64
2022/08/29 01:43:51;;;;;;;25.97;14.80;;;;;;;19.07;100.00;99608.00;4204611;28;20452;-63
2022/08/29 01:46:24;;;;;;;30.53;16.17;;;;;;;19.07;100.00;99608.00;4202862;28;20237;-65
2022/08/29 01:48:51;;;;;;;27.00;16.83;;;;;;;19.08;100.00;99616.94;4187391;28;20312;-64
2022/08/29 01:51:18;;;;;;;30.70;18.03;;;;;;;19.00;100.00;99609.13;4189810;28;20240;-63
2022/08/29 01:53:45;;;;;;;28.70;17.90;;;;;;;18.97;100.00;99613.91;4207455;28;20660;-64
2022/08/29 01:56:17;;;;;;;31.27;19.50;;;;;;;19.02;100.00;99617.81;4212541;28;20443;-64
2022/08/29 01:58:45;;;;;;;36.07;20.20;;;;;;;18.97;100.00;99624.69;4188265;28;20244;-66
2022/08/29 02:01:14;;;;;;;36.20;21.37;;;;;;;18.92;100.00;99624.53;4204729;28;20240;-65
2022/08/29 02:03:40;;;;;;;46.23;23.27;;;;;;;18.86;100.00;99620.00;4187590;28;20410;-64
2022/08/29 02:06:10;;;;;;;39.03;23.63;;;;;;;18.82;100.00;99631.44;4203007;28;21546;-63
2022/08/29 02:08:38;;;;;;;46.60;24.60;;;;;;;18.78;100.00;99625.69;4208345;28;20311;-67
2022/08/29 02:11:10;;;;;;;40.37;24.33;;;;;;;18.75;100.00;99623.38;4199047;28;21091;-65
2022/08/29 02:13:58;;;;;;;46.73;24.40;;;;;;;18.76;100.00;99625.88;4207786;28;20238;-64
2022/08/29 02:16:26;;;;;;;43.13;23.93;;;;;;;18.75;100.00;99624.22;4209871;28;22636;-66
2022/08/29 02:18:53;;;;;;;39.43;23.83;;;;;;;18.72;100.00;99626.50;4198356;28;20240;-64
2022/08/29 02:21:22;;;;;;;43.53;24.53;;;;;;;18.80;100.00;99626.28;4185451;28;20682;-65
2022/08/29 02:23:49;;;;;;;40.83;23.70;;;;;;;18.82;100.00;99634.97;4213917;28;20333;-64
2022/08/29 02:26:17;;;;;;;48.83;25.30;;;;;;;18.73;100.00;99631.69;4209377;28;20791;-64
2022/08/29 02:28:44;;;;;;;44.70;25.37;;;;;;;18.80;100.00;99629.00;4203399;28;20367;-62
2022/08/29 02:31:12;;;;;;;46.27;26.20;;;;;;;18.94;100.00;99635.06;4203744;28;20304;-66
2022/08/29 02:33:39;;;;;;;48.20;24.87;;;;;;;18.91;100.00;99636.34;4207611;28;21959;-66
2022/08/29 02:36:06;;;;;;;46.00;26.40;;;;;;;18.86;100.00;99644.28;4206092;28;21877;-65
2022/08/29 02:38:33;;;;;;;43.37;25.30;;;;;;;18.90;100.00;99644.69;4213760;28;22164;-65
2022/08/29 02:41:00;;;;;;;48.27;26.27;;;;;;;18.86;100.00;99646.97;4202476;28;20247;-63
2022/08/29 02:43:27;;;;;;;52.33;28.03;;;;;;;18.71;100.00;99646.44;4209742;28;20338;-66
2022/08/29 02:45:53;;;;;;;49.70;28.87;;;;;;;18.70;100.00;99650.97;4210893;28;21236;-64
2022/08/29 02:48:20;;;;;;;49.77;28.43;;;;;;;18.70;100.00;99652.84;4213811;28;20229;-64
2022/08/29 02:50:49;;;;;;;49.47;29.37;;;;;;;18.76;100.00;99657.38;4207633;28;20243;-64
2022/08/29 02:53:17;;;;;;;60.27;31.87;;;;;;;18.72;100.00;99653.47;4208042;28;20224;-63
2022/08/29 02:55:46;;;;;;;55.37;31.40;;;;;;;18.70;100.00;99655.56;4191698;28;20244;-64
2022/08/29 02:58:13;;;;;;;58.73;31.00;;;;;;;18.69;100.00;99653.91;4212032;28;20241;-65
2022/08/29 03:00:41;;;;;;;60.77;32.33;;;;;;;18.67;100.00;99653.28;4205231;28;20270;-66
2022/08/29 03:03:07;;;;;;;69.23;34.60;;;;;;;18.66;100.00;99657.88;4213375;28;20236;-64
2022/08/29 03:05:36;;;;;;;61.97;34.87;;;;;;;18.66;100.00;99654.31;4211189;28;20585;-65
2022/08/29 03:08:05;;;;;;;62.10;35.07;;;;;;;18.64;100.00;99651.88;4204831;28;20239;-63
2022/08/29 03:10:33;;;;;;;68.83;36.53;;;;;;;18.70;100.00;99655.56;4210720;28;20456;-65
2022/08/29 03:13:00;;;;;;;68.40;37.60;;;;;;;18.75;100.00;99655.72;4211240;28;21850;-64
2022/08/29 03:15:26;;;;;;;66.10;37.07;;;;;;;18.75;100.00;99659.25;4207279;28;20252;-62
2022/08/29 03:17:53;;;;;;;65.60;36.53;;;;;;;18.75;100.00;99658.41;4209101;28;21195;-63
2022/08/29 03:20:22;;;;;;;68.93;37.30;;;;;;;18.79;100.00;99656.97;4207699;28;20361;-62
2022/08/29 03:22:50;;;;;;;65.60;35.57;;;;;;;18.76;100.00;99658.22;4206428;28;25732;-63
2022/08/29 03:25:17;;;;;;;74.73;37.53;;;;;;;18.73;100.00;99665.88;4206947;28;20751;-64
2022/08/29 03:27:43;;;;;;;76.23;40.87;;;;;;;18.71;100.00;99657.22;4207886;28;20313;-64
2022/08/29 03:30:12;;;;;;;74.03;37.83;;;;;;;18.80;100.00;99661.34;4208572;28;21545;-63
2022/08/29 03:32:39;;;;;;;66.13;37.37;;;;;;;18.80;100.00;99665.88;4171955;28;21916;-66
2022/08/29 03:35:08;;;;;;;68.37;37.83;;;;;;;18.83;100.00;99663.59;4209643;28;20235;-63
2022/08/29 03:37:34;;;;;;;62.60;36.03;;;;;;;18.81;100.00;99668.38;4206818;28;22476;-64
2022/08/29 03:40:04;;;;;;;62.90;37.23;;;;;;;18.80;100.00;99669.44;4205762;28;20486;-63
2022/08/29 03:42:30;;;;;;;56.97;33.97;;;;;;;18.89;100.00;99676.19;4206450;28;22718;-63
2022/08/29 03:44:57;;;;;;;61.47;32.53;;;;;;;18.86;100.00;99676.63;4207932;28;20249;-63
2022/08/29 03:47:23;;;;;;;55.57;32.30;;;;;;;18.85;100.00;99683.06;4216237;28;20362;-62
2022/08/29 03:49:50;;;;;;;50.77;30.40;;;;;;;18.92;100.00;99686.53;4202083;28;20255;-64
2022/08/29 03:52:16;;;;;;;48.30;31.73;;;;;;;18.90;100.00;99683.25;4204854;28;20757;-63
2022/08/29 03:54:43;;;;;;;51.00;29.83;;;;;;;18.88;100.00;99684.50;4218436;28;20335;-63
2022/08/29 03:57:10;;;;;;;49.87;30.17;;;;;;;18.92;100.00;99691.94;4203850;28;20311;-63
2022/08/29 03:59:37;;;;;;;46.17;28.23;;;;;;;18.95;100.00;99687.97;4204659;28;20745;-63
2022/08/29 04:02:04;;;;;;;44.83;27.27;;;;;;;18.82;100.00;99686.19;4213402;28;20299;-63
2022/08/29 04:07:16;;;;;;;42.23;26.30;;;;;;;18.89;100.00;99692.34;4207711;28;20410;-64
2022/08/29 04:09:43;;;;;;;43.67;24.83;;;;;;;18.83;100.00;99698.63;4216352;28;20305;-64
2022/08/29 04:12:11;;;;;;;40.30;24.67;;;;;;;18.83;100.00;99697.81;4209594;28;20236;-61
2022/08/29 04:14:38;;;;;;;40.33;25.83;;;;;;;18.86;100.00;99698.19;4204101;28;20311;-62
2022/08/29 04:17:05;;;;;;;38.47;23.60;;;;;;;18.89;100.00;99703.13;4213740;28;20243;-63
2022/08/29 04:19:34;;;;;;;37.50;25.73;;;;;;;18.78;100.00;99706.56;4210481;28;20319;-63
2022/08/29 04:22:01;;;;;;;39.73;24.70;;;;;;;18.79;100.00;99707.38;4221029;28;20969;-65
2022/08/29 04:24:32;;;;;;;35.93;23.90;;;;;;;18.79;100.00;99707.38;4199855;28;20229;-63
2022/08/29 04:26:59;;;;;;;40.57;24.33;;;;;;;18.80;100.00;99714.41;4213229;28;20236;-64
2022/08/29 04:29:26;;;;;;;33.63;22.77;;;;;;;18.84;100.00;99719.13;4212051;28;21264;-63
2022/08/29 04:31:52;;;;;;;35.73;23.57;;;;;;;18.82;100.00;99709.63;4187380;28;21165;-66
2022/08/29 04:34:20;;;;;;;43.13;23.47;;;;;;;18.74;100.00;99718.75;4207434;28;20588;-64
2022/08/29 04:36:47;;;;;;;33.37;22.70;;;;;;;18.73;100.00;99722.50;4206229;28;20267;-63
2022/08/29 04:39:14;;;;;;;35.53;21.33;;;;;;;18.73;100.00;99726.03;4208962;28;21557;-63
2022/08/29 04:41:41;;;;;;;31.70;21.10;;;;;;;18.74;100.00;99721.47;4215498;28;20443;-66
2022/08/29 04:44:09;;;;;;;29.73;17.50;;;;;;;18.71;100.00;99722.72;4219791;28;20245;-66
2022/08/29 04:46:37;;;;;;;27.13;17.27;;;;;;;18.69;100.00;99729.38;4214828;28;20233;-64
2022/08/29 04:49:04;;;;;;;27.17;16.00;;;;;;;18.66;100.00;99724.41;4205524;28;20325;-64
2022/08/29 04:51:33;;;;;;;22.00;13.70;;;;;;;18.64;100.00;99726.50;4205694;28;20232;-64
2022/08/29 04:53:59;;;;;;;21.70;13.37;;;;;;;18.60;100.00;99731.47;4216040;28;20243;-64
2022/08/29 04:56:26;;;;;;;22.53;11.87;;;;;;;18.54;100.00;99735.88;4175097;28;20475;-64
2022/08/29 04:58:55;;;;;;;14.63;10.70;;;;;;;18.55;100.00;99734.00;4198586;28;20237;-63
2022/08/29 05:01:23;;;;;;;18.20;8.57;;;;;;;18.59;100.00;99729.84;4213176;28;20281;-65
2022/08/29 05:03:53;;;;;;;12.13;7.87;;;;;;;18.51;100.00;99738.97;4209155;28;22259;-65
2022/08/29 05:06:21;;;;;;;10.97;7.40;;;;;;;18.52;100.00;99743.34;4249214;28;20343;-63
2022/08/29 05:08:48;;;;;;;11.30;6.97;;;;;;;18.51;100.00;99743.53;4229537;28;20238;-64
2022/08/29 05:11:27;;;;;;;10.27;6.70;;;;;;;18.48;100.00;99741.28;4206536;28;20689;-65
2022/08/29 05:13:54;;;;;;;10.20;5.47;;;;;;;18.39;100.00;99742.56;4229310;28;20244;-63
2022/08/29 05:16:20;;;;;;;9.17;5.97;;;;;;;18.40;100.00;99742.34;4213752;28;20229;-65
2022/08/29 05:18:47;;;;;;;9.93;5.57;;;;;;;18.41;100.00;99760.16;4231990;28;21806;-65
2022/08/29 05:21:32;;;;;;;7.90;5.10;;;;;;;18.37;100.00;99756.22;4216592;28;20302;-65
2022/08/29 05:24:06;;;;;;;9.87;5.27;;;;;;;18.35;100.00;99753.78;4268953;28;20318;-64
2022/08/29 05:26:36;;;;;;;6.80;4.90;;;;;;;18.38;100.00;99747.13;4210515;28;20235;-68
2022/08/29 05:29:05;;;;;;;6.57;5.27;;;;;;;18.35;100.00;99752.94;4235824;28;20239;-63
2022/08/29 05:31:35;;;;;;;6.90;5.37;;;;;;;18.36;100.00;99757.28;4223886;28;20236;-63
2022/08/29 05:34:04;;;;;;;7.83;5.73;;;;;;;18.42;100.00;99759.13;4228244;28;21218;-65
2022/08/29 05:36:50;;;;;;;6.27;4.97;;;;;;;18.44;100.00;99758.91;4208833;28;20611;-65
2022/08/29 05:39:17;;;;;;;7.93;5.67;;;;;;;18.41;100.00;99760.16;4229197;28;20861;-66
2022/08/29 05:41:43;;;;;;;12.50;5.47;;;;;;;18.35;100.00;99761.00;4231718;28;21673;-64
2022/08/29 05:44:10;;;;;;;10.60;5.40;;;;;;;18.38;100.00;99765.13;4227314;28;20892;-65
2022/08/29 05:46:36;;;;;;;10.40;6.10;;;;;;;18.38;100.00;99763.28;4231615;28;21536;-65
2022/08/29 05:49:04;;;;;;;9.93;6.37;;;;;;;18.43;100.00;99768.03;4220920;28;20230;-63
2022/08/29 05:51:31;;;;;;;10.63;6.97;;;;;;;18.41;100.00;99775.50;4224111;28;22444;-64
2022/08/29 05:54:04;;;;;;;9.17;6.70;;;;;;;18.41;100.00;99776.34;4207819;28;21273;-66
2022/08/29 05:56:31;;;;;;;7.47;6.10;;;;;;;18.42;100.00;99772.59;4226554;28;20767;-64
2022/08/29 05:58:58;;;;;;;12.90;7.47;;;;;;;18.47;100.00;99775.50;4213894;28;20424;-66
2022/08/29 06:01:27;;;;;;;11.03;7.00;;;;;;;18.58;100.00;99775.84;4195569;28;21019;-62
2022/08/29 06:03:58;;;;;;;9.93;6.83;;;;;;;18.61;100.00;99773.53;4212284;28;20305;-66
2022/08/29 06:06:27;;;;;;;9.40;7.17;;;;;;;18.67;100.00;99779.97;4210663;28;21863;-64
2022/08/29 06:08:55;;;;;;;10.83;7.43;;;;;;;18.66;100.00;99773.75;4207231;28;21847;-65
2022/08/29 06:11:28;;;;;;;10.43;7.73;;;;;;;18.64;100.00;99791.19;4198666;28;22936;-62
2022/08/29 06:13:55;;;;;;;11.20;7.37;;;;;;;18.62;100.00;99793.25;4221286;28;20231;-66
2022/08/29 06:16:23;;;;;;;11.43;8.53;;;;;;;18.52;100.00;99782.94;4225128;28;21753;-66
2022/08/29 06:18:50;;;;;;;11.63;8.13;;;;;;;18.61;100.00;99791.59;4203802;28;21788;-66
2022/08/29 06:21:18;;;;;;;11.07;8.33;;;;;;;18.81;100.00;99784.28;4232838;28;21234;-66
2022/08/29 06:23:45;;;;;;;11.43;7.33;;;;;;;19.03;100.00;99795.56;4217240;28;20251;-64
2022/08/29 06:26:12;;;;;;;10.70;7.87;;;;;;;18.88;100.00;99801.25;4224682;28;20483;-65
2022/08/29 06:28:44;;;;;;;12.87;8.30;;;;;;;18.82;100.00;99799.41;4223888;28;20654;-65
2022/08/29 06:31:27;;;;;;;10.53;8.00;;;;;;;18.94;100.00;99805.78;4227910;28;20283;-67
2022/08/29 06:33:59;;;;;;;18.70;8.90;;;;;;;18.94;100.00;99802.25;4224631;28;20243;-65
2022/08/29 06:36:27;;;;;;;12.27;8.37;;;;;;;18.99;100.00;99807.84;4205232;28;20649;-66
2022/08/29 06:38:55;;;;;;;16.00;8.77;;;;;;;18.99;100.00;99807.84;4199698;28;20228;-64
2022/08/29 06:41:24;;;;;;;11.33;8.47;;;;;;;18.87;100.00;99810.41;4230478;28;20723;-65
2022/08/29 06:43:51;;;;;;;12.50;8.30;;;;;;;18.87;100.00;99818.47;4200598;28;21151;-66
2022/08/29 06:46:21;;;;;;;13.87;9.23;;;;;;;18.91;100.00;99821.56;4213399;28;20232;-66
2022/08/29 06:48:48;;;;;;;12.70;9.30;;;;;;;19.02;100.00;99825.47;4209597;28;20237;-67
2022/08/29 06:51:15;;;;;;;15.57;9.40;;;;;;;19.15;100.00;99831.63;4225576;28;21309;-65
2022/08/29 06:53:42;;;;;;;13.73;9.50;;;;;;;19.15;100.00;99833.47;4185570;28;20326;-64
2022/08/29 06:56:09;;;;;;;14.83;9.43;;;;;;;19.15;100.00;99830.75;4221937;28;20263;-64
2022/08/29 06:58:37;;;;;;;16.13;10.23;;;;;;;19.14;100.00;99835.34;4213772;28;20283;-63
2022/08/29 07:01:08;;;;;;;16.20;9.67;;;;;;;19.22;100.00;99836.94;4210657;28;21242;-67
2022/08/29 07:03:35;;;;;;;18.60;9.73;;;;;;;19.23;100.00;99841.31;4226368;28;20346;-66
2022/08/29 07:06:02;;;;;;;18.50;9.47;;;;;;;19.26;100.00;99838.19;4251200;28;20301;-67
2022/08/29 07:08:28;;;;;;;16.07;9.67;;;;;;;19.27;100.00;99842.53;4233885;28;20228;-67
2022/08/29 07:10:55;;;;;;;16.23;9.40;;;;;;;19.35;100.00;99842.28;4261167;28;20585;-63
2022/08/29 07:13:23;;;;;;;17.93;9.57;;;;;;;19.33;100.00;99849.75;4222969;28;20590;-79
2022/08/29 07:15:50;;;;;;;21.87;9.83;;;;;;;19.36;100.00;99852.03;4216389;28;20231;-71
2022/08/29 07:18:17;;;;;;;18.40;10.07;;;;;;;19.60;100.00;99852.31;4244276;28;20304;-73
2022/08/29 07:20:44;;;;;;;16.47;9.30;;;;;;;19.75;100.00;99858.22;4209782;28;20703;-69
2022/08/29 07:23:11;;;;;;;15.83;8.80;;;;;;;19.74;100.00;99864.69;4232807;28;20233;-69
2022/08/29 07:25:38;;;;;;;15.47;8.03;;;;;;;19.79;100.00;99859.44;4236739;28;22627;-72
2022/08/29 07:28:05;;;;;;;11.67;7.87;;;;;;;19.77;100.00;99866.94;4228844;28;20225;-71
2022/08/29 07:30:33;;;;;;;14.13;7.77;;;;;;;19.79;100.00;99864.84;4229175;28;22700;-71
2022/08/29 07:33:00;;;;;;;12.40;8.63;;;;;;;19.75;100.00;99873.59;4205686;28;20270;-71
2022/08/29 07:35:27;;;;;;;11.67;8.13;;;;;;;19.70;100.00;99870.75;4221270;28;20236;-71
2022/08/29 07:37:59;;;;;;;12.37;7.80;;;;;;;19.52;100.00;99884.94;4234095;28;20232;-65
2022/08/29 07:40:27;;;;;;;12.73;7.47;;;;;;;19.21;100.00;99867.69;4212637;28;20377;-66
2022/08/29 07:42:54;;;;;;;15.10;8.20;;;;;;;19.16;100.00;99886.38;4219767;28;21802;-66
2022/08/29 07:45:21;;;;;;;16.00;7.97;;;;;;;19.12;100.00;99885.16;4228322;28;20248;-72
2022/08/29 07:47:47;;;;;;;12.03;7.60;;;;;;;19.15;100.00;99895.50;4220457;28;20245;-70
2022/08/29 07:50:14;;;;;;;14.20;7.27;;;;;;;18.93;100.00;99892.28;4213623;28;25912;-71
2022/08/29 07:52:41;;;;;;;13.73;8.27;;;;;;;18.88;100.00;99898.31;4219459;28;20254;-79
2022/08/29 07:55:09;;;;;;;13.70;7.73;;;;;;;18.78;100.00;99900.63;4215046;28;20399;-76
2022/08/29 07:57:35;;;;;;;13.77;7.13;;;;;;;19.02;100.00;99899.09;4234491;28;20275;-71
2022/08/29 08:00:09;;;;;;;12.07;7.03;;;;;;;19.39;99.29;99897.47;4322498;28;21160;-70
2022/08/29 08:02:36;;;;;;;15.47;6.93;;;;;;;19.57;98.65;99904.00;4307644;28;20301;-72
2022/08/29 08:05:03;;;;;;;10.77;6.60;;;;;;;19.56;97.36;99899.66;4214467;28;23371;-72
2022/08/29 08:07:33;;;;;;;15.40;6.37;;;;;;;19.62;95.58;99901.50;4224841;28;22012;-72
2022/08/29 08:10:01;;;;;;;15.50;7.30;;;;;;;19.49;95.83;99906.97;4222488;28;20252;-71
2022/08/29 08:12:28;;;;;;;12.77;6.73;;;;;;;19.50;95.28;99908.59;4217495;28;20307;-73
2022/08/29 08:14:55;;;;;;;11.23;6.10;;;;;;;19.49;95.28;99912.38;4219205;28;20229;-72
2022/08/29 08:17:23;;;;;;;13.07;6.43;;;;;;;19.40;94.99;99914.47;4199745;28;20236;-73
2022/08/29 08:19:50;;;;;;;16.20;6.53;;;;;;;19.38;95.64;99916.56;4207030;28;20656;-69
2022/08/29 08:22:16;;;;;;;11.73;6.53;;;;;;;19.31;95.80;99915.78;4218167;28;20238;-69
2022/08/29 08:24:43;;;;;;;15.43;6.87;;;;;;;19.25;96.20;99922.88;4217895;28;20320;-70
2022/08/29 08:27:10;;;;;;;12.87;6.87;;;;;;;19.25;96.22;99920.16;4228596;28;20455;-77
2022/08/29 08:29:37;;;;;;;12.23;6.37;;;;;;;19.37;96.55;99923.84;4213225;28;20328;-70
2022/08/29 08:32:04;;;;;;;13.37;7.50;;;;;;;19.42;96.02;99927.75;4226852;28;20303;-73
2022/08/29 08:34:31;;;;;;;14.63;7.73;;;;;;;19.56;93.97;99929.34;4217316;28;20304;-74
2022/08/29 08:37:06;;;;;;;15.97;7.63;;;;;;;19.53;94.15;99929.78;4206531;28;22358;-50
2022/08/29 08:39:34;;;;;;;11.93;7.30;;;;;;;19.53;93.45;99924.38;4220101;28;20241;-67
2022/08/29 08:42:05;;;;;;;17.10;7.30;;;;;;;19.50;93.91;99933.75;4210043;28;20243;-64
2022/08/29 08:44:52;;;;;;;15.70;7.23;;;;;;;19.45;93.79;99932.72;4187102;28;20363;-65
2022/08/29 08:47:25;;;;;;;16.30;7.20;;;;;;;19.24;96.09;99934.69;4187743;28;20299;-63
2022/08/29 08:50:20;;;;;;;14.07;7.93;;;;;;;19.43;95.93;99937.50;4201838;28;20260;-64
2022/08/29 08:53:04;;;;;;;17.87;9.50;;;;;;;19.27;94.58;99931.56;4204340;28;20288;-62
2022/08/29 08:55:38;;;;;;;15.93;9.27;;;;;;;19.26;94.00;99938.00;4197624;28;20388;-62
2022/08/29 08:58:14;;;;;;;12.77;9.00;;;;;;;19.51;93.04;99943.50;4211127;28;21335;-66
2022/08/29 09:00:49;;;;;;;16.53;9.40;;;;;;;19.58;93.09;99943.47;4190449;28;21533;-66
2022/08/29 09:03:38;;;;;;;19.13;9.00;;;;;;;19.78;91.43;99940.66;4226647;28;20307;-66
2022/08/29 09:06:14;;;;;;;14.50;9.30;;;;;;;19.86;89.73;99940.41;4220548;28;20239;-66
2022/08/29 09:08:50;;;;;;;20.87;9.87;;;;;;;19.88;90.42;99943.72;4206655;28;25523;-67
2022/08/29 09:11:32;;;;;;;17.07;9.60;;;;;;;20.45;87.28;99943.69;4228459;28;20430;-64
2022/08/29 09:14:05;;;;;;;13.43;8.00;;;;;;;20.81;81.38;99948.38;4249231;28;20685;-65
2022/08/29 09:16:39;;;;;;;14.10;7.00;;;;;;;20.89;80.51;99947.22;4195241;28;21345;-64
2022/08/29 09:19:10;;;;;;;14.03;6.93;;;;;;;21.27;78.83;99963.22;4232392;28;20231;-64
2022/08/29 09:21:45;;;;;;;12.27;6.20;;;;;;;21.40;78.08;99956.00;4234822;28;21550;-64
2022/08/29 09:24:20;;;;;;;7.83;4.47;;;;;;;21.23;77.62;99947.66;4223659;28;20274;-66
2022/08/29 09:26:47;;;;;;;12.67;5.17;;;;;;;21.28;77.84;99955.94;4209447;28;20232;-53
2022/08/29 09:29:16;;;;;;;9.57;4.70;;;;;;;21.35;77.00;99956.66;4213786;28;20459;-45
2022/08/29 09:31:42;;;;;;;8.17;4.70;;;;;;;21.40;75.37;99962.28;4217377;28;20235;-44
2022/08/29 09:34:11;;;;;;;11.07;4.67;;;;;;;21.43;74.76;99959.09;4224164;28;20241;-41
2022/08/29 09:36:51;;;;;;;10.73;5.07;;;;;;;21.45;73.80;99959.72;4186642;28;20246;-41
2022/08/29 09:39:24;;;;;;;9.03;5.30;;;;;;;21.46;72.74;99972.19;4217927;28;21064;-66
2022/08/29 09:42:11;;;;;;;10.73;5.73;;;;;;;21.45;73.28;99959.72;4185992;28;20234;-67
2022/08/29 09:44:39;;;;;;;8.33;4.87;;;;;;;21.79;72.63;99959.25;4205787;28;20243;-68
2022/08/29 09:47:11;;;;;;;8.47;4.67;;;;;;;21.82;72.10;99959.63;4212064;28;20293;-64
2022/08/29 09:49:41;;;;;;;8.40;4.30;;;;;;;21.85;71.07;99964.56;4213009;28;20302;-64
2022/08/29 09:52:23;;;;;;;13.17;4.37;;;;;;;21.85;69.54;99959.16;4213622;28;20275;-65
2022/08/29 09:54:50;;;;;;;10.07;4.60;;;;;;;21.77;68.19;99962.19;4225375;28;22948;-68
2022/08/29 09:57:27;;;;;;;9.40;4.53;;;;;;;21.96;66.72;99964.84;4199816;28;20713;-66
2022/08/29 10:00:12;;;;;;;14.90;5.23;;;;;;;21.81;66.03;99971.50;4182462;28;20314;-65
2022/08/29 10:02:42;;;;;;;8.13;4.40;;;;;;;21.74;66.23;99962.66;4211912;28;20629;-65
2022/08/29 10:05:29;;;;;;;11.50;4.53;;;;;;;21.85;66.18;99970.00;4221458;28;21131;-63
2022/08/29 10:07:57;;;;;;;6.40;3.23;;;;;;;22.32;65.27;99972.03;4212040;28;20298;-69
2022/08/29 10:10:27;;;;;;;7.90;3.40;;;;;;;22.44;64.53;99967.44;4232739;28;20239;-63
2022/08/29 10:12:59;;;;;;;13.20;3.97;;;;;;;22.36;64.65;99969.66;4215239;28;21051;-67
2022/08/29 10:15:31;;;;;;;9.23;3.27;;;;;;;22.13;64.32;99971.25;4207269;28;20248;-65
2022/08/29 10:18:23;;;;;;;7.13;3.00;;;;;;;22.32;64.07;99969.31;4190368;28;20236;-63
2022/08/29 10:21:23;;;;;;;7.33;2.83;;;;;;;21.83;62.63;99976.72;4217766;28;20252;-67
2022/08/29 10:23:58;;;;;;;11.47;3.17;;;;;;;21.69;63.81;99970.63;4215834;28;20771;-68
2022/08/29 10:26:38;;;;;;;13.00;3.27;;;;;;;21.75;64.12;99979.72;4206980;28;20317;-65
2022/08/29 10:29:25;;;;;;;5.63;2.77;;;;;;;21.73;64.11;99971.84;4206358;28;20250;-67
2022/08/29 10:32:35;;;;;;;10.27;2.93;;;;;;;21.76;63.42;99976.78;4217720;28;20232;-65
2022/08/29 10:35:38;;;;;;;13.17;3.13;;;;;;;22.31;63.38;99967.66;4231274;28;20304;-66
2022/08/29 10:38:22;;;;;;;9.10;2.80;;;;;;;22.12;62.36;99977.72;4179298;28;20237;-66
2022/08/29 10:41:19;;;;;;;8.83;2.37;;;;;;;21.85;63.00;99980.84;4200940;28;20225;-67
2022/08/29 10:44:04;;;;;;;7.43;2.77;;;;;;;22.37;62.00;99977.56;4218190;28;21179;-65
2022/08/29 10:46:46;;;;;;;4.93;2.57;;;;;;;22.56;59.33;99983.72;4180197;28;22391;-66
2022/08/29 10:49:31;;;;;;;9.00;2.67;;;;;;;22.47;59.70;99980.50;4186190;28;20358;-65
2022/08/29 10:52:13;;;;;;;6.13;3.00;;;;;;;22.12;61.51;99986.69;4197932;28;20233;-66
2022/08/29 10:54:59;;;;;;;5.00;2.50;;;;;;;21.96;61.27;99991.94;4165759;28;20258;-66
2022/08/29 10:57:54;;;;;;;6.23;2.53;;;;;;;21.71;58.85;99995.63;4187412;28;21723;-66
2022/08/29 11:00:23;;;;;;;7.43;2.63;;;;;;;21.77;59.85;99989.25;4202780;28;20244;-65
2022/08/29 11:03:10;;;;;;;8.90;2.57;;;;;;;22.04;59.87;99994.31;4180280;28;22897;-67
2022/08/29 11:05:45;;;;;;;7.40;2.73;;;;;;;22.23;59.54;99984.25;4193788;28;20236;-67
2022/08/29 11:08:18;;;;;;;6.57;2.53;;;;;;;22.49;58.78;99985.72;4192530;28;21336;-67
2022/08/29 11:10:49;;;;;;;5.67;2.73;;;;;;;22.47;59.79;99991.34;4192245;28;20248;-66
2022/08/29 11:13:35;;;;;;;8.27;2.53;;;;;;;22.16;55.54;99995.16;4195327;28;23392;-67
2022/08/29 11:16:15;;;;;;;7.57;2.97;;;;;;;21.80;55.29;99988.81;4188398;28;21747;-67
2022/08/29 11:18:50;;;;;;;7.63;2.40;;;;;;;21.48;58.40;99985.50;4190310;28;20482;-64
2022/08/29 11:21:26;;;;;;;7.63;2.60;;;;;;;21.59;58.07;99981.22;4196560;28;20980;-65
2022/08/29 11:23:56;;;;;;;4.90;2.37;;;;;;;21.79;58.30;99987.16;4221434;28;21784;-64
2022/08/29 11:26:43;;;;;;;7.67;2.93;;;;;;;21.97;58.81;99983.56;4202126;28;22269;-68
2022/08/29 11:29:31;;;;;;;6.07;2.83;;;;;;;22.20;57.50;99988.25;4185793;28;20233;-65
2022/08/29 11:32:11;;;;;;;9.33;2.33;;;;;;;22.45;53.63;99989.94;4187118;28;20810;-66
2022/08/29 11:35:06;;;;;;;5.40;2.20;;;;;;;22.76;53.46;99986.91;4181265;28;20256;-67
2022/08/29 11:37:58;;;;;;;6.47;2.30;;;;;;;22.83;53.75;99983.22;4225132;28;20239;-64
2022/08/29 11:40:41;;;;;;;8.83;2.57;;;;;;;22.95;53.96;99986.78;4230240;28;20240;-67